sensor_id;sensor_type;location;lat;lon;timestamp;temperature;humidity
19206;DHT22;59358;52.134;5.596;2023-08-20T00:00:02;19.10;99.90
19206;DHT22;59358;52.134;5.596;2023-08-20T00:02:33;19.10;99.90
19206;DHT22;59358;52.134;5.596;2023-08-20T00:05:03;19.10;99.90
19206;DHT22;59358;52.134;5.596;2023-08-20T00:07:31;19.10;99.90
19206;DHT22;59358;52.134;5.596;2023-08-20T00:09:58;19.10;99.90
19206;DHT22;59358;52.134;5.596;2023-08-20T00:12:26;19.00;99.90
19206;DHT22;59358;52.134;5.596;2023-08-20T00:14:55;19.00;99.90
19206;DHT22;59358;52.134;5.596;2023-08-20T00:17:24;18.90;99.90
19206;DHT22;59358;52.134;5.596;2023-08-20T00:19:53;18.80;99.90
19206;DHT22;59358;52.134;5.596;2023-08-20T00:22:22;18.70;99.90
19206;DHT22;59358;52.134;5.596;2023-08-20T00:24:50;18.70;99.90
19206;DHT22;59358;52.134;5.596;2023-08-20T00:27:17;18.60;99.90
19206;DHT22;59358;52.134;5.596;2023-08-20T00:29:45;18.60;99.90
19206;DHT22;59358;52.134;5.596;2023-08-20T00:32:13;18.50;99.90
19206;DHT22;59358;52.134;5.596;2023-08-20T00:34:40;18.50;99.90
19206;DHT22;59358;52.134;5.596;2023-08-20T00:37:07;18.40;99.90
19206;DHT22;59358;52.134;5.596;2023-08-20T00:39:34;18.30;99.90
19206;DHT22;59358;52.134;5.596;2023-08-20T00:42:01;18.30;99.90
19206;DHT22;59358;52.134;5.596;2023-08-20T00:44:29;18.20;99.90
19206;DHT22;59358;52.134;5.596;2023-08-20T00:46:58;18.10;99.90
19206;DHT22;59358;52.134;5.596;2023-08-20T00:49:26;18.10;99.90
19206;DHT22;59358;52.134;5.596;2023-08-20T00:51:53;18.10;99.90
19206;DHT22;59358;52.134;5.596;2023-08-20T00:54:20;18.10;99.90
19206;DHT22;59358;52.134;5.596;2023-08-20T00:56:49;18.20;99.90
19206;DHT22;59358;52.134;5.596;2023-08-20T00:59:16;18.30;99.90
19206;DHT22;59358;52.134;5.596;2023-08-20T01:01:43;18.30;99.90
19206;DHT22;59358;52.134;5.596;2023-08-20T01:04:12;18.30;99.90
19206;DHT22;59358;52.134;5.596;2023-08-20T01:06:44;18.40;99.90
19206;DHT22;59358;52.134;5.596;2023-08-20T01:09:21;18.50;99.90
19206;DHT22;59358;52.134;5.596;2023-08-20T01:11:54;18.60;99.90
19206;DHT22;59358;52.134;5.596;2023-08-20T01:14:22;18.60;99.90
19206;DHT22;59358;52.134;5.596;2023-08-20T01:16:49;18.70;99.90
19206;DHT22;59358;52.134;5.596;2023-08-20T01:19:18;18.70;99.90
19206;DHT22;59358;52.134;5.596;2023-08-20T01:21:56;18.60;99.90
19206;DHT22;59358;52.134;5.596;2023-08-20T01:24:42;18.70;99.90
19206;DHT22;59358;52.134;5.596;2023-08-20T01:27:26;18.60;99.90
19206;DHT22;59358;52.134;5.596;2023-08-20T01:29:56;18.60;99.90
19206;DHT22;59358;52.134;5.596;2023-08-20T01:32:24;18.60;99.90
19206;DHT22;59358;52.134;5.596;2023-08-20T01:34:52;18.70;99.90
19206;DHT22;59358;52.134;5.596;2023-08-20T01:37:19;18.60;99.90
19206;DHT22;59358;52.134;5.596;2023-08-20T01:39:46;18.70;99.90
19206;DHT22;59358;52.134;5.596;2023-08-20T01:42:13;18.70;99.90
19206;DHT22;59358;52.134;5.596;2023-08-20T01:44:40;18.70;99.90
19206;DHT22;59358;52.134;5.596;2023-08-20T01:47:08;18.70;99.90
19206;DHT22;59358;52.134;5.596;2023-08-20T01:49:35;18.80;99.90
19206;DHT22;59358;52.134;5.596;2023-08-20T01:52:02;18.80;99.90
19206;DHT22;59358;52.134;5.596;2023-08-20T01:54:29;18.80;99.90
19206;DHT22;59358;52.134;5.596;2023-08-20T01:56:56;18.80;99.90
19206;DHT22;59358;52.134;5.596;2023-08-20T01:59:23;18.80;99.90
19206;DHT22;59358;52.134;5.596;2023-08-20T02:01:50;18.80;99.90
19206;DHT22;59358;52.134;5.596;2023-08-20T02:04:18;18.70;99.90
19206;DHT22;59358;52.134;5.596;2023-08-20T02:06:45;18.60;99.90
19206;DHT22;59358;52.134;5.596;2023-08-20T02:09:12;18.50;99.90
19206;DHT22;59358;52.134;5.596;2023-08-20T02:11:38;18.50;99.90
19206;DHT22;59358;52.134;5.596;2023-08-20T02:14:05;18.40;99.90
19206;DHT22;59358;52.134;5.596;2023-08-20T02:16:32;18.30;99.90
19206;DHT22;59358;52.134;5.596;2023-08-20T02:18:59;18.30;99.90
19206;DHT22;59358;52.134;5.596;2023-08-20T02:21:29;18.10;99.90
19206;DHT22;59358;52.134;5.596;2023-08-20T02:23:55;18.10;99.90
19206;DHT22;59358;52.134;5.596;2023-08-20T02:26:22;18.00;99.90
19206;DHT22;59358;52.134;5.596;2023-08-20T02:28:49;18.10;99.90
19206;DHT22;59358;52.134;5.596;2023-08-20T02:31:16;18.10;99.90
19206;DHT22;59358;52.134;5.596;2023-08-20T02:33:43;18.10;99.90
19206;DHT22;59358;52.134;5.596;2023-08-20T02:36:10;18.00;99.90
19206;DHT22;59358;52.134;5.596;2023-08-20T02:38:38;18.00;99.90
19206;DHT22;59358;52.134;5.596;2023-08-20T02:41:05;17.90;99.90
19206;DHT22;59358;52.134;5.596;2023-08-20T02:43:31;17.90;99.90
19206;DHT22;59358;52.134;5.596;2023-08-20T02:45:58;17.80;99.90
19206;DHT22;59358;52.134;5.596;2023-08-20T02:48:25;17.90;99.90
19206;DHT22;59358;52.134;5.596;2023-08-20T02:50:53;17.70;99.90
19206;DHT22;59358;52.134;5.596;2023-08-20T02:53:20;17.70;99.90
19206;DHT22;59358;52.134;5.596;2023-08-20T02:55:48;17.60;99.90
19206;DHT22;59358;52.134;5.596;2023-08-20T02:58:15;17.60;99.90
19206;DHT22;59358;52.134;5.596;2023-08-20T03:00:42;17.50;99.90
19206;DHT22;59358;52.134;5.596;2023-08-20T03:03:10;17.50;99.90
19206;DHT22;59358;52.134;5.596;2023-08-20T03:05:37;17.40;99.90
19206;DHT22;59358;52.134;5.596;2023-08-20T03:08:05;17.40;99.90
19206;DHT22;59358;52.134;5.596;2023-08-20T03:10:33;17.30;99.90
19206;DHT22;59358;52.134;5.596;2023-08-20T03:13:02;17.30;99.90
19206;DHT22;59358;52.134;5.596;2023-08-20T03:15:30;17.30;99.90
19206;DHT22;59358;52.134;5.596;2023-08-20T03:17:57;17.30;99.90
19206;DHT22;59358;52.134;5.596;2023-08-20T03:20:24;17.30;99.90
19206;DHT22;59358;52.134;5.596;2023-08-20T03:22:51;17.30;99.90
19206;DHT22;59358;52.134;5.596;2023-08-20T03:25:18;17.20;99.90
19206;DHT22;59358;52.134;5.596;2023-08-20T03:27:45;17.20;99.90
19206;DHT22;59358;52.134;5.596;2023-08-20T03:30:13;17.20;99.90
19206;DHT22;59358;52.134;5.596;2023-08-20T03:32:40;17.20;99.90
19206;DHT22;59358;52.134;5.596;2023-08-20T03:35:08;17.20;99.90
19206;DHT22;59358;52.134;5.596;2023-08-20T03:37:34;17.20;99.90
19206;DHT22;59358;52.134;5.596;2023-08-20T03:40:02;17.20;99.90
19206;DHT22;59358;52.134;5.596;2023-08-20T03:42:30;17.20;99.90
19206;DHT22;59358;52.134;5.596;2023-08-20T03:44:57;17.20;99.90
19206;DHT22;59358;52.134;5.596;2023-08-20T03:47:25;17.20;99.90
19206;DHT22;59358;52.134;5.596;2023-08-20T03:49:52;17.20;99.90
19206;DHT22;59358;52.134;5.596;2023-08-20T03:52:19;17.10;99.90
19206;DHT22;59358;52.134;5.596;2023-08-20T03:54:46;17.10;99.90
19206;DHT22;59358;52.134;5.596;2023-08-20T03:57:13;17.10;99.90
19206;DHT22;59358;52.134;5.596;2023-08-20T03:59:40;17.10;99.90
19206;DHT22;59358;52.134;5.596;2023-08-20T04:02:06;17.20;99.90
19206;DHT22;59358;52.134;5.596;2023-08-20T04:04:35;17.20;99.90
19206;DHT22;59358;52.134;5.596;2023-08-20T04:07:02;17.20;99.90
19206;DHT22;59358;52.134;5.596;2023-08-20T04:09:29;17.30;99.90
19206;DHT22;59358;52.134;5.596;2023-08-20T04:11:57;17.40;99.90
19206;DHT22;59358;52.134;5.596;2023-08-20T04:14:24;17.40;99.90
19206;DHT22;59358;52.134;5.596;2023-08-20T04:16:51;17.40;99.90
19206;DHT22;59358;52.134;5.596;2023-08-20T04:19:17;17.40;99.90
19206;DHT22;59358;52.134;5.596;2023-08-20T04:21:46;17.50;99.90
19206;DHT22;59358;52.134;5.596;2023-08-20T04:24:13;17.50;99.90
19206;DHT22;59358;52.134;5.596;2023-08-20T04:26:40;17.40;99.90
19206;DHT22;59358;52.134;5.596;2023-08-20T04:29:07;17.40;99.90
19206;DHT22;59358;52.134;5.596;2023-08-20T04:31:33;17.30;99.90
19206;DHT22;59358;52.134;5.596;2023-08-20T04:34:00;17.30;99.90
19206;DHT22;59358;52.134;5.596;2023-08-20T04:36:27;17.20;99.90
19206;DHT22;59358;52.134;5.596;2023-08-20T04:38:56;17.20;99.90
19206;DHT22;59358;52.134;5.596;2023-08-20T04:41:22;17.20;99.90
19206;DHT22;59358;52.134;5.596;2023-08-20T04:43:49;17.20;99.90
19206;DHT22;59358;52.134;5.596;2023-08-20T04:46:16;17.30;99.90
19206;DHT22;59358;52.134;5.596;2023-08-20T04:48:43;17.30;99.90
19206;DHT22;59358;52.134;5.596;2023-08-20T04:51:10;17.40;99.90
19206;DHT22;59358;52.134;5.596;2023-08-20T04:53:37;17.50;99.90
19206;DHT22;59358;52.134;5.596;2023-08-20T04:56:05;17.50;99.90
19206;DHT22;59358;52.134;5.596;2023-08-20T04:58:32;17.50;99.90
19206;DHT22;59358;52.134;5.596;2023-08-20T05:00:59;17.60;99.90
19206;DHT22;59358;52.134;5.596;2023-08-20T05:03:26;17.60;99.90
19206;DHT22;59358;52.134;5.596;2023-08-20T05:05:53;17.60;99.90
19206;DHT22;59358;52.134;5.596;2023-08-20T05:08:19;17.70;99.90
19206;DHT22;59358;52.134;5.596;2023-08-20T05:10:46;17.80;99.90
19206;DHT22;59358;52.134;5.596;2023-08-20T05:13:14;17.80;99.90
19206;DHT22;59358;52.134;5.596;2023-08-20T05:15:42;17.90;99.90
19206;DHT22;59358;52.134;5.596;2023-08-20T05:18:10;18.00;99.90
19206;DHT22;59358;52.134;5.596;2023-08-20T05:20:38;18.00;99.90
19206;DHT22;59358;52.134;5.596;2023-08-20T05:23:06;18.10;99.90
19206;DHT22;59358;52.134;5.596;2023-08-20T05:25:33;18.20;99.90
19206;DHT22;59358;52.134;5.596;2023-08-20T05:28:00;18.20;99.90
19206;DHT22;59358;52.134;5.596;2023-08-20T05:30:28;18.40;99.90
19206;DHT22;59358;52.134;5.596;2023-08-20T05:32:55;18.40;99.90
19206;DHT22;59358;52.134;5.596;2023-08-20T05:35:22;18.30;99.90
19206;DHT22;59358;52.134;5.596;2023-08-20T05:37:49;18.30;99.90
19206;DHT22;59358;52.134;5.596;2023-08-20T05:40:16;18.30;99.90
19206;DHT22;59358;52.134;5.596;2023-08-20T05:42:42;18.20;99.90
19206;DHT22;59358;52.134;5.596;2023-08-20T05:45:09;18.20;99.90
19206;DHT22;59358;52.134;5.596;2023-08-20T05:47:38;18.20;99.90
19206;DHT22;59358;52.134;5.596;2023-08-20T05:50:05;18.10;99.90
19206;DHT22;59358;52.134;5.596;2023-08-20T05:52:32;18.10;99.90
19206;DHT22;59358;52.134;5.596;2023-08-20T05:54:59;18.20;99.90
19206;DHT22;59358;52.134;5.596;2023-08-20T05:57:26;18.20;99.90
19206;DHT22;59358;52.134;5.596;2023-08-20T05:59:53;18.30;99.90
19206;DHT22;59358;52.134;5.596;2023-08-20T06:02:20;18.30;99.90
19206;DHT22;59358;52.134;5.596;2023-08-20T06:04:48;18.30;99.90
19206;DHT22;59358;52.134;5.596;2023-08-20T06:07:16;18.40;99.90
19206;DHT22;59358;52.134;5.596;2023-08-20T06:09:43;18.40;99.90
19206;DHT22;59358;52.134;5.596;2023-08-20T06:12:10;18.50;99.90
19206;DHT22;59358;52.134;5.596;2023-08-20T06:14:37;18.50;99.90
19206;DHT22;59358;52.134;5.596;2023-08-20T06:17:04;18.60;99.90
19206;DHT22;59358;52.134;5.596;2023-08-20T06:19:30;18.60;99.90
19206;DHT22;59358;52.134;5.596;2023-08-20T06:21:59;18.70;99.90
19206;DHT22;59358;52.134;5.596;2023-08-20T06:24:25;18.80;99.90
19206;DHT22;59358;52.134;5.596;2023-08-20T06:26:52;18.70;99.90
19206;DHT22;59358;52.134;5.596;2023-08-20T06:29:19;18.80;99.90
19206;DHT22;59358;52.134;5.596;2023-08-20T06:31:47;18.90;99.90
19206;DHT22;59358;52.134;5.596;2023-08-20T06:34:14;19.00;99.90
19206;DHT22;59358;52.134;5.596;2023-08-20T06:36:41;19.00;99.90
19206;DHT22;59358;52.134;5.596;2023-08-20T06:39:09;19.10;99.90
19206;DHT22;59358;52.134;5.596;2023-08-20T06:41:36;19.30;99.90
19206;DHT22;59358;52.134;5.596;2023-08-20T06:44:04;19.40;99.90
19206;DHT22;59358;52.134;5.596;2023-08-20T06:46:31;19.30;99.90
19206;DHT22;59358;52.134;5.596;2023-08-20T06:48:58;19.40;99.90
19206;DHT22;59358;52.134;5.596;2023-08-20T06:51:24;19.40;99.90
19206;DHT22;59358;52.134;5.596;2023-08-20T06:53:53;19.40;99.90
19206;DHT22;59358;52.134;5.596;2023-08-20T06:56:22;19.50;99.90
19206;DHT22;59358;52.134;5.596;2023-08-20T06:58:48;19.50;99.90
19206;DHT22;59358;52.134;5.596;2023-08-20T07:01:15;19.50;99.90
19206;DHT22;59358;52.134;5.596;2023-08-20T07:03:43;19.60;99.90
19206;DHT22;59358;52.134;5.596;2023-08-20T07:06:11;19.70;99.90
19206;DHT22;59358;52.134;5.596;2023-08-20T07:08:39;19.90;99.90
19206;DHT22;59358;52.134;5.596;2023-08-20T07:11:08;19.90;99.90
19206;DHT22;59358;52.134;5.596;2023-08-20T07:13:36;20.00;99.90
19206;DHT22;59358;52.134;5.596;2023-08-20T07:16:03;20.10;99.90
19206;DHT22;59358;52.134;5.596;2023-08-20T07:18:30;20.00;99.90
19206;DHT22;59358;52.134;5.596;2023-08-20T07:20:57;20.10;99.90
19206;DHT22;59358;52.134;5.596;2023-08-20T07:23:24;20.20;99.90
19206;DHT22;59358;52.134;5.596;2023-08-20T07:26:04;20.30;99.90
19206;DHT22;59358;52.134;5.596;2023-08-20T07:28:31;20.40;99.90
19206;DHT22;59358;52.134;5.596;2023-08-20T07:31:13;20.50;99.90
19206;DHT22;59358;52.134;5.596;2023-08-20T07:33:40;20.40;99.90
19206;DHT22;59358;52.134;5.596;2023-08-20T07:36:06;20.60;99.90
19206;DHT22;59358;52.134;5.596;2023-08-20T07:38:34;20.80;99.90
19206;DHT22;59358;52.134;5.596;2023-08-20T07:41:03;20.90;99.90
19206;DHT22;59358;52.134;5.596;2023-08-20T07:43:30;20.80;99.90
19206;DHT22;59358;52.134;5.596;2023-08-20T07:45:56;20.90;99.90
19206;DHT22;59358;52.134;5.596;2023-08-20T07:48:24;20.80;99.90
19206;DHT22;59358;52.134;5.596;2023-08-20T07:50:51;20.90;99.90
19206;DHT22;59358;52.134;5.596;2023-08-20T07:53:18;21.00;99.90
19206;DHT22;59358;52.134;5.596;2023-08-20T07:55:45;21.10;99.90
19206;DHT22;59358;52.134;5.596;2023-08-20T07:58:12;21.00;99.90
19206;DHT22;59358;52.134;5.596;2023-08-20T08:00:39;21.00;99.90
19206;DHT22;59358;52.134;5.596;2023-08-20T08:03:05;20.80;99.90
19206;DHT22;59358;52.134;5.596;2023-08-20T08:05:34;20.90;99.90
19206;DHT22;59358;52.134;5.596;2023-08-20T08:08:02;21.00;99.90
19206;DHT22;59358;52.134;5.596;2023-08-20T08:10:29;21.20;99.90
19206;DHT22;59358;52.134;5.596;2023-08-20T08:12:55;21.20;99.90
19206;DHT22;59358;52.134;5.596;2023-08-20T08:15:22;21.50;99.90
19206;DHT22;59358;52.134;5.596;2023-08-20T08:17:49;21.60;99.90
19206;DHT22;59358;52.134;5.596;2023-08-20T08:20:16;21.50;99.90
19206;DHT22;59358;52.134;5.596;2023-08-20T08:22:44;21.60;99.90
19206;DHT22;59358;52.134;5.596;2023-08-20T08:25:11;21.80;99.90
19206;DHT22;59358;52.134;5.596;2023-08-20T08:27:37;22.00;99.90
19206;DHT22;59358;52.134;5.596;2023-08-20T08:30:05;22.20;99.90
19206;DHT22;59358;52.134;5.596;2023-08-20T08:32:32;22.30;99.90
19206;DHT22;59358;52.134;5.596;2023-08-20T08:34:59;22.40;99.90
19206;DHT22;59358;52.134;5.596;2023-08-20T08:37:26;22.50;99.90
19206;DHT22;59358;52.134;5.596;2023-08-20T08:39:54;22.50;99.90
19206;DHT22;59358;52.134;5.596;2023-08-20T08:42:22;22.60;99.90
19206;DHT22;59358;52.134;5.596;2023-08-20T08:44:50;22.50;99.90
19206;DHT22;59358;52.134;5.596;2023-08-20T08:47:18;22.50;99.90
19206;DHT22;59358;52.134;5.596;2023-08-20T08:49:45;22.60;99.90
19206;DHT22;59358;52.134;5.596;2023-08-20T08:52:13;22.60;99.90
19206;DHT22;59358;52.134;5.596;2023-08-20T08:54:40;22.80;99.90
19206;DHT22;59358;52.134;5.596;2023-08-20T08:57:08;22.90;99.90
19206;DHT22;59358;52.134;5.596;2023-08-20T08:59:35;23.00;99.90
19206;DHT22;59358;52.134;5.596;2023-08-20T09:02:07;23.10;99.90
19206;DHT22;59358;52.134;5.596;2023-08-20T09:04:34;23.20;99.90
19206;DHT22;59358;52.134;5.596;2023-08-20T09:07:01;23.20;99.90
19206;DHT22;59358;52.134;5.596;2023-08-20T09:09:29;23.20;99.90
19206;DHT22;59358;52.134;5.596;2023-08-20T09:11:56;23.40;99.90
19206;DHT22;59358;52.134;5.596;2023-08-20T09:14:28;23.50;99.90
19206;DHT22;59358;52.134;5.596;2023-08-20T09:16:56;23.40;99.90
19206;DHT22;59358;52.134;5.596;2023-08-20T09:19:23;23.60;99.90
19206;DHT22;59358;52.134;5.596;2023-08-20T09:21:50;23.80;99.90
19206;DHT22;59358;52.134;5.596;2023-08-20T09:24:26;24.00;99.90
19206;DHT22;59358;52.134;5.596;2023-08-20T09:26:57;24.10;99.90
19206;DHT22;59358;52.134;5.596;2023-08-20T09:29:26;24.10;99.90
19206;DHT22;59358;52.134;5.596;2023-08-20T09:32:00;23.90;99.90
19206;DHT22;59358;52.134;5.596;2023-08-20T09:34:36;23.90;99.90
19206;DHT22;59358;52.134;5.596;2023-08-20T09:37:04;23.90;99.90
19206;DHT22;59358;52.134;5.596;2023-08-20T09:39:30;24.00;99.90
19206;DHT22;59358;52.134;5.596;2023-08-20T09:41:59;23.90;99.90
19206;DHT22;59358;52.134;5.596;2023-08-20T09:44:32;24.10;99.90
19206;DHT22;59358;52.134;5.596;2023-08-20T09:47:01;24.10;99.90
19206;DHT22;59358;52.134;5.596;2023-08-20T09:49:30;24.30;99.90
19206;DHT22;59358;52.134;5.596;2023-08-20T09:52:01;24.50;99.90
19206;DHT22;59358;52.134;5.596;2023-08-20T09:54:36;24.60;99.90
19206;DHT22;59358;52.134;5.596;2023-08-20T09:57:09;24.70;99.90
19206;DHT22;59358;52.134;5.596;2023-08-20T09:59:41;24.70;99.90
19206;DHT22;59358;52.134;5.596;2023-08-20T10:02:10;24.80;99.90
19206;DHT22;59358;52.134;5.596;2023-08-20T10:04:38;24.40;99.90
19206;DHT22;59358;52.134;5.596;2023-08-20T10:07:05;24.70;99.90
19206;DHT22;59358;52.134;5.596;2023-08-20T10:09:33;24.70;99.90
19206;DHT22;59358;52.134;5.596;2023-08-20T10:12:01;24.60;99.90
19206;DHT22;59358;52.134;5.596;2023-08-20T10:14:28;24.40;99.90
19206;DHT22;59358;52.134;5.596;2023-08-20T10:16:57;24.50;99.90
19206;DHT22;59358;52.134;5.596;2023-08-20T10:19:24;24.70;99.90
19206;DHT22;59358;52.134;5.596;2023-08-20T10:21:52;25.20;99.90
19206;DHT22;59358;52.134;5.596;2023-08-20T10:24:19;25.40;99.90
19206;DHT22;59358;52.134;5.596;2023-08-20T10:26:46;25.50;99.90
19206;DHT22;59358;52.134;5.596;2023-08-20T10:29:36;25.50;99.90
19206;DHT22;59358;52.134;5.596;2023-08-20T10:32:06;25.40;99.90
19206;DHT22;59358;52.134;5.596;2023-08-20T10:34:35;25.60;99.90
19206;DHT22;59358;52.134;5.596;2023-08-20T10:37:03;25.50;99.90
19206;DHT22;59358;52.134;5.596;2023-08-20T10:39:35;25.50;99.90
19206;DHT22;59358;52.134;5.596;2023-08-20T10:42:23;25.80;99.90
19206;DHT22;59358;52.134;5.596;2023-08-20T10:44:59;25.80;99.90
19206;DHT22;59358;52.134;5.596;2023-08-20T10:47:36;26.00;99.90
19206;DHT22;59358;52.134;5.596;2023-08-20T10:50:04;26.10;99.90
19206;DHT22;59358;52.134;5.596;2023-08-20T10:52:32;26.00;99.90
19206;DHT22;59358;52.134;5.596;2023-08-20T10:54:59;26.30;99.90
19206;DHT22;59358;52.134;5.596;2023-08-20T10:57:33;26.30;99.90
19206;DHT22;59358;52.134;5.596;2023-08-20T11:00:02;26.70;99.90
19206;DHT22;59358;52.134;5.596;2023-08-20T11:02:36;27.00;99.90
19206;DHT22;59358;52.134;5.596;2023-08-20T11:05:03;26.70;99.90
19206;DHT22;59358;52.134;5.596;2023-08-20T11:07:31;26.60;99.90
19206;DHT22;59358;52.134;5.596;2023-08-20T11:10:00;26.60;99.90
19206;DHT22;59358;52.134;5.596;2023-08-20T11:12:29;26.20;99.90
19206;DHT22;59358;52.134;5.596;2023-08-20T11:15:00;26.00;99.90
19206;DHT22;59358;52.134;5.596;2023-08-20T11:17:27;26.30;99.90
19206;DHT22;59358;52.134;5.596;2023-08-20T11:19:55;26.30;99.90
19206;DHT22;59358;52.134;5.596;2023-08-20T11:22:22;25.90;99.90
19206;DHT22;59358;52.134;5.596;2023-08-20T11:24:49;25.70;99.90
19206;DHT22;59358;52.134;5.596;2023-08-20T11:27:16;25.40;99.90
19206;DHT22;59358;52.134;5.596;2023-08-20T11:29:43;25.70;99.90
19206;DHT22;59358;52.134;5.596;2023-08-20T11:32:10;26.30;99.90
19206;DHT22;59358;52.134;5.596;2023-08-20T11:34:37;26.70;99.90
19206;DHT22;59358;52.134;5.596;2023-08-20T11:37:06;27.00;99.90
19206;DHT22;59358;52.134;5.596;2023-08-20T11:39:33;27.40;99.90
19206;DHT22;59358;52.134;5.596;2023-08-20T11:41:59;27.70;99.90
19206;DHT22;59358;52.134;5.596;2023-08-20T11:44:27;28.40;99.70
19206;DHT22;59358;52.134;5.596;2023-08-20T11:46:54;28.70;98.70
19206;DHT22;59358;52.134;5.596;2023-08-20T11:49:27;28.00;98.60
19206;DHT22;59358;52.134;5.596;2023-08-20T11:51:55;28.00;99.30
19206;DHT22;59358;52.134;5.596;2023-08-20T11:54:24;27.90;99.10
19206;DHT22;59358;52.134;5.596;2023-08-20T11:56:52;27.70;99.20
19206;DHT22;59358;52.134;5.596;2023-08-20T11:59:20;28.30;98.50
19206;DHT22;59358;52.134;5.596;2023-08-20T12:01:50;28.30;99.10
19206;DHT22;59358;52.134;5.596;2023-08-20T12:04:17;28.40;98.30
19206;DHT22;59358;52.134;5.596;2023-08-20T12:06:44;28.70;98.10
19206;DHT22;59358;52.134;5.596;2023-08-20T12:09:21;29.20;98.00
19206;DHT22;59358;52.134;5.596;2023-08-20T12:11:54;29.80;97.80
19206;DHT22;59358;52.134;5.596;2023-08-20T12:14:22;30.00;96.50
19206;DHT22;59358;52.134;5.596;2023-08-20T12:16:49;30.30;97.20
19206;DHT22;59358;52.134;5.596;2023-08-20T12:19:17;29.40;97.30
19206;DHT22;59358;52.134;5.596;2023-08-20T12:21:44;29.40;96.50
19206;DHT22;59358;52.134;5.596;2023-08-20T12:24:11;29.40;97.40
19206;DHT22;59358;52.134;5.596;2023-08-20T12:26:39;29.60;96.40
19206;DHT22;59358;52.134;5.596;2023-08-20T12:29:07;29.70;96.20
19206;DHT22;59358;52.134;5.596;2023-08-20T12:31:35;29.40;96.70
19206;DHT22;59358;52.134;5.596;2023-08-20T12:34:02;29.30;96.70
19206;DHT22;59358;52.134;5.596;2023-08-20T12:36:29;29.10;95.90
19206;DHT22;59358;52.134;5.596;2023-08-20T12:38:56;28.60;96.30
19206;DHT22;59358;52.134;5.596;2023-08-20T12:41:23;28.40;96.90
19206;DHT22;59358;52.134;5.596;2023-08-20T12:43:50;28.40;96.90
19206;DHT22;59358;52.134;5.596;2023-08-20T12:46:19;28.60;97.50
19206;DHT22;59358;52.134;5.596;2023-08-20T12:48:46;28.60;98.00
19206;DHT22;59358;52.134;5.596;2023-08-20T12:51:13;28.30;97.50
19206;DHT22;59358;52.134;5.596;2023-08-20T12:53:42;28.40;97.40
19206;DHT22;59358;52.134;5.596;2023-08-20T12:56:09;28.40;97.70
19206;DHT22;59358;52.134;5.596;2023-08-20T12:58:37;28.50;97.80
19206;DHT22;59358;52.134;5.596;2023-08-20T13:01:04;28.70;98.20
19206;DHT22;59358;52.134;5.596;2023-08-20T13:03:33;29.10;96.60
19206;DHT22;59358;52.134;5.596;2023-08-20T13:06:00;28.90;97.30
19206;DHT22;59358;52.134;5.596;2023-08-20T13:08:27;28.60;96.20
19206;DHT22;59358;52.134;5.596;2023-08-20T13:10:57;28.30;96.30
19206;DHT22;59358;52.134;5.596;2023-08-20T13:13:25;27.90;97.30
19206;DHT22;59358;52.134;5.596;2023-08-20T13:15:53;27.70;97.50
19206;DHT22;59358;52.134;5.596;2023-08-20T13:18:21;27.70;97.50
19206;DHT22;59358;52.134;5.596;2023-08-20T13:20:52;28.20;98.30
19206;DHT22;59358;52.134;5.596;2023-08-20T13:23:19;28.10;97.40
19206;DHT22;59358;52.134;5.596;2023-08-20T13:25:45;28.50;96.00
19206;DHT22;59358;52.134;5.596;2023-08-20T13:28:12;28.90;95.40
19206;DHT22;59358;52.134;5.596;2023-08-20T13:30:40;28.90;95.90
19206;DHT22;59358;52.134;5.596;2023-08-20T13:33:06;29.10;95.20
19206;DHT22;59358;52.134;5.596;2023-08-20T13:35:33;28.90;95.40
19206;DHT22;59358;52.134;5.596;2023-08-20T13:38:02;28.80;95.20
19206;DHT22;59358;52.134;5.596;2023-08-20T13:40:30;29.20;96.10
19206;DHT22;59358;52.134;5.596;2023-08-20T13:42:56;29.70;95.70
19206;DHT22;59358;52.134;5.596;2023-08-20T13:45:23;30.20;95.20
19206;DHT22;59358;52.134;5.596;2023-08-20T13:47:50;30.50;95.10
19206;DHT22;59358;52.134;5.596;2023-08-20T13:50:17;30.50;93.50
19206;DHT22;59358;52.134;5.596;2023-08-20T13:52:44;30.00;94.10
19206;DHT22;59358;52.134;5.596;2023-08-20T13:55:12;29.50;94.30
19206;DHT22;59358;52.134;5.596;2023-08-20T13:57:39;29.00;96.10
19206;DHT22;59358;52.134;5.596;2023-08-20T14:00:07;28.40;96.70
19206;DHT22;59358;52.134;5.596;2023-08-20T14:02:36;28.70;97.80
19206;DHT22;59358;52.134;5.596;2023-08-20T14:05:03;29.00;96.30
19206;DHT22;59358;52.134;5.596;2023-08-20T14:07:31;29.40;95.70
19206;DHT22;59358;52.134;5.596;2023-08-20T14:09:58;30.10;95.40
19206;DHT22;59358;52.134;5.596;2023-08-20T14:12:27;29.70;95.60
19206;DHT22;59358;52.134;5.596;2023-08-20T14:14:54;30.20;95.00
19206;DHT22;59358;52.134;5.596;2023-08-20T14:17:21;30.50;94.80
19206;DHT22;59358;52.134;5.596;2023-08-20T14:19:48;31.00;94.70
19206;DHT22;59358;52.134;5.596;2023-08-20T14:22:17;31.30;92.80
19206;DHT22;59358;52.134;5.596;2023-08-20T14:24:44;30.60;94.00
19206;DHT22;59358;52.134;5.596;2023-08-20T14:27:11;30.00;94.70
19206;DHT22;59358;52.134;5.596;2023-08-20T14:29:40;29.20;94.60
19206;DHT22;59358;52.134;5.596;2023-08-20T14:32:07;28.60;95.60
19206;DHT22;59358;52.134;5.596;2023-08-20T14:34:34;28.20;95.80
19206;DHT22;59358;52.134;5.596;2023-08-20T14:37:01;28.40;96.80
19206;DHT22;59358;52.134;5.596;2023-08-20T14:39:29;29.20;96.60
19206;DHT22;59358;52.134;5.596;2023-08-20T14:41:57;29.30;95.70
19206;DHT22;59358;52.134;5.596;2023-08-20T14:44:24;29.10;95.00
19206;DHT22;59358;52.134;5.596;2023-08-20T14:46:52;29.40;95.10
19206;DHT22;59358;52.134;5.596;2023-08-20T14:49:19;30.10;94.50
19206;DHT22;59358;52.134;5.596;2023-08-20T14:51:46;30.40;94.20
19206;DHT22;59358;52.134;5.596;2023-08-20T14:54:12;30.50;94.10
19206;DHT22;59358;52.134;5.596;2023-08-20T14:56:39;30.50;93.90
19206;DHT22;59358;52.134;5.596;2023-08-20T14:59:06;30.00;95.10
19206;DHT22;59358;52.134;5.596;2023-08-20T15:01:35;30.00;95.10
19206;DHT22;59358;52.134;5.596;2023-08-20T15:04:03;30.20;94.50
19206;DHT22;59358;52.134;5.596;2023-08-20T15:06:30;30.80;94.30
19206;DHT22;59358;52.134;5.596;2023-08-20T15:08:57;31.60;93.10
19206;DHT22;59358;52.134;5.596;2023-08-20T15:11:24;31.70;92.20
19206;DHT22;59358;52.134;5.596;2023-08-20T15:13:50;32.00;91.90
19206;DHT22;59358;52.134;5.596;2023-08-20T15:16:17;31.90;92.40
19206;DHT22;59358;52.134;5.596;2023-08-20T15:18:44;32.30;91.70
19206;DHT22;59358;52.134;5.596;2023-08-20T15:21:13;33.10;91.50
19206;DHT22;59358;52.134;5.596;2023-08-20T15:23:40;33.50;92.00
19206;DHT22;59358;52.134;5.596;2023-08-20T15:26:07;34.50;90.20
19206;DHT22;59358;52.134;5.596;2023-08-20T15:28:34;35.30;88.50
19206;DHT22;59358;52.134;5.596;2023-08-20T15:31:01;35.60;85.70
19206;DHT22;59358;52.134;5.596;2023-08-20T15:33:28;36.10;86.40